< < Back
Terminal Aerodrome Forecast


Current Version              Previous Versions:   1  2  3  4  5  6  7  8  9  

Terminal Aerodrome Forecast

273
FTUS42 KTAE 010500
TAFDHN
TAF
KDHN 010523Z 0106/0206 00000KT P6SM SCT250
     FM011600 VRB05KT P6SM SCT060 SCT250=



Latest METAR

995
SAUS70 KWBC 020000
MTRDHN
METAR KDHN 012353Z 02007KT 10SM CLR 27/22 A3002 RMK AO2 SLP158 T02720217
10317 20272 53004


USA.gov is the U.S. government's official web portal to all federal, state and local government web resources and services.